Home > Products > Valid Products > TAF

000
FTUS45 KLKN 210500
TAFTPH
TAF
KTPH 210520Z 2106/2206 35008KT P6SM SCT250
     FM211800 19019G32KT P6SM SCT140 BKN250=



000
FTUS45 KLKN 210500
TAFWMC
TAF
KWMC 210520Z 2106/2206 VRB06KT P6SM SCT250
     FM211600 VRB05KT P6SM BKN120 BKN200
     FM212000 23018G28KT P6SM BKN110 BKN200
     FM220300 24008KT P6SM SCT050 BKN070=



000
FTUS45 KLKN 210500
TAFELY
TAF
KELY 210520Z 2106/2206 17008KT P6SM SCT250
     FM211900 19020G32KT P6SM SCT100 BKN200
     FM220100 18014G24KT P6SM SCT080=



000
FTUS45 KLKN 210500
TAFEKO
TAF
KEKO 210520Z 2106/2206 VRB03KT P6SM SCT250
     FM212000 24015G25KT P6SM SCT100 BKN150
     FM220200 26006KT P6SM SCT080 BKN100=



000
FTUS45 KLKN 202300
TAFTPH
TAF
KTPH 202328Z 2100/2124 30010KT P6SM FEW080 SCT250
     FM210600 36009KT P6SM SCT250
     FM211800 19019G29KT P6SM SCT140 BKN200=



000
FTUS45 KLKN 202300
TAFEKO
TAF
KEKO 202328Z 2100/2124 25010G15KT P6SM SCT250
     FM210200 VRB03KT P6SM SCT250
     FM211900 23017G27KT P6SM SCT100 BKN150=



000
FTUS45 KLKN 202300
TAFELY
TAF
KELY 202328Z 2100/2124 30012KT P6SM SCT100 SCT250
     FM210200 17009KT P6SM SCT250
     FM211900 19020G30KT P6SM SCT080 BKN200=



000
FTUS45 KLKN 202300
TAFWMC
TAF
KWMC 202328Z 2100/2124 VRB06KT P6SM SCT250
     FM211600 VRB05KT P6SM BKN120 BKN200
     FM211900 23017G27KT P6SM BKN110 BKN200=



000
FTUS45 KLKN 201700 RRA
TAFEKO
TAF
KEKO 201742Z 2018/2118 21003KT P6SM SCT250
     FM202000 26009KT P6SM FEW070 SCT250
     FM210200 VRB03KT P6SM SCT250=



000
FTUS45 KLKN 201700 RRA
TAFWMC
TAF
KWMC 201742Z 2018/2118 32007KT P6SM SCT250
     FM210300 VRB05KT P6SM SCT250
     FM211600 VRB05KT P6SM BKN120 BKN200=



000
FTUS45 KLKN 201700 RRA
TAFTPH
TAF
KTPH 201742Z 2018/2118 29009KT P6SM FEW090 SCT250
     FM210600 36009KT P6SM SCT250=



000
FTUS45 KLKN 201700 RRA
TAFELY
TAF
KELY 201742Z 2018/2118 31007KT P6SM SCT100 SCT250
     FM210300 17009KT P6SM SCT250=



000
FTUS45 KLKN 201100
TAFELY
TAF
KELY 201120Z 2012/2112 18007KT P6SM BKN250
     FM201600 35007KT P6SM BKN250
     FM210500 17007KT P6SM SCT250=



000
FTUS45 KLKN 201100
TAFWMC
TAF
KWMC 201120Z 2012/2112 33006KT P6SM BKN250
     FM210400 08007KT P6SM SCT250=



000
FTUS45 KLKN 201100
TAFEKO
TAF
KEKO 201120Z 2012/2112 VRB03KT P6SM BKN250
     FM202000 27009G16KT P6SM SCT250
     FM210200 VRB04KT P6SM SCT250=



000
FTUS45 KLKN 201100
TAFTPH
TAF
KTPH 201120Z 2012/2112 34008KT P6SM BKN250=



000
FTUS45 KLKN 200500
TAFEKO
TAF
KEKO 200520Z 2006/2106 VRB06KT P6SM SCT170 BKN200=



000
FTUS45 KLKN 200500
TAFTPH
TAF
KTPH 200520Z 2006/2106 01006KT P6SM BKN110
     FM201700 VRB06KT P6SM SCT110 SCT200
     FM202000 29010G20KT P6SM FEW200
     FM210000 VRB06KT P6SM SKC=



000
FTUS45 KLKN 200500
TAFWMC
TAF
KWMC 200520Z 2006/2106 VRB06KT P6SM SCT170 BKN200=



000
FTUS45 KLKN 200500
TAFELY
TAF
KELY 200520Z 2006/2106 17006KT P6SM BKN110
     FM201600 VRB06KT P6SM SCT110=



000
FTUS45 KLKN 200300 AAB
TAFWMC
TAF AMD
KWMC 200309Z 2003/2024 VRB06KT P6SM FEW070 SCT200=



000
FTUS45 KLKN 200200 AAA
TAFELY
TAF AMD
KELY 200215Z 2002/2024 17009KT P6SM VCSH FEW060 BKN080 BKN100
     FM200430 17009KT P6SM SCT080
     FM202000 30007KT P6SM BKN080=



000
FTUS45 KLKN 200200 AAA
TAFWMC
TAF AMD
KWMC 200214Z 2002/2024 27010G20KT P6SM SCT250
     FM200300 33007KT P6SM FEW070 SCT200=



000
FTUS45 KLKN 192300
TAFTPH
TAF
KTPH 192332Z 2000/2024 27009KT P6SM FEW080 SCT250
     FM200600 35009KT P6SM FEW100 SCT250
     FM201800 28007KT P6SM SCT250=



000
FTUS45 KLKN 192300
TAFEKO
TAF
KEKO 192332Z 2000/2024 25012G20KT P6SM FEW080 SCT250
     FM200200 VRB03KT P6SM SCT070 SCT200
     FM202000 25009KT P6SM SCT250=



000
FTUS45 KLKN 192300
TAFWMC
TAF
KWMC 192332Z 2000/2024 23014G20KT P6SM SCT250
     FM200300 33007KT P6SM FEW070 SCT200=



000
FTUS45 KLKN 192300
TAFELY
TAF
KELY 192332Z 2000/2024 27009KT P6SM VCTS FEW060 BKN080CB BKN100
      TEMPO 2000/2001 5SM -RA BKN060
     FM200300 17009KT P6SM SCT080
     FM202000 30007KT P6SM BKN080=



000
FTUS45 KLKN 192100 AAA
TAFELY
TAF AMD
KELY 192109Z 1921/2018 27015G22KT P6SM VCTS FEW050 BKN080CB OVC100
     FM200300 17009KT P6SM SCT080=



000
FTUS45 KLKN 192100 AAA
TAFWMC
TAF AMD
KWMC 192108Z 1921/2018 23014G20KT P6SM SCT250
     FM200300 VRB05KT P6SM SCT070 SCT200=



000
FTUS45 KLKN 191700
TAFEKO
TAF
KEKO 191726Z 1918/2018 23005KT P6SM SCT120 SCT250
     FM192000 24013G22KT P6SM SCT080
     FM200200 VRB03KT P6SM SCT070 SCT200=



000
FTUS45 KLKN 191700
TAFWMC
TAF
KWMC 191726Z 1918/2018 25007KT P6SM FEW080 BKN250
     FM192000 26014G22KT P6SM FEW080 SCT250
     FM200400 VRB05KT P6SM SCT070 SCT200=



000
FTUS45 KLKN 191700
TAFELY
TAF
KELY 191726Z 1918/2018 20005KT P6SM SCT070 SCT200
     FM192000 23009KT P6SM VCTS SCT050 BKN070CB BKN100
     FM200300 17009KT P6SM SCT080=



000
FTUS45 KLKN 191700
TAFTPH
TAF
KTPH 191726Z 1918/2018 20009KT P6SM SCT250
     FM191900 24010G18KT P6SM SCT080 SCT250
     FM200200 27008KT P6SM FEW100 SCT250
     FM200600 35009KT P6SM FEW100 SCT250=



000
FTUS45 KLKN 191100
TAFTPH
TAF
KTPH 191120Z 1912/2012 36008KT P6SM BKN200
     FM191900 24010G20KT P6SM SCT070
     FM200200 33008KT P6SM SCT100=



000
FTUS45 KLKN 191100
TAFEKO
TAF
KEKO 191120Z 1912/2012 VRB04KT P6SM BKN250
     FM192000 25012G22KT P6SM SCT080
     FM200200 VRB04KT P6SM SCT250=



000
FTUS45 KLKN 191100
TAFWMC
TAF
KWMC 191120Z 1912/2012 VRB05KT P6SM SCT250
     FM192000 26012G22KT P6SM SCT250
     FM200400 34006KT P6SM SCT200=



000
FTUS45 KLKN 191100
TAFELY
TAF
KELY 191120Z 1912/2012 18005KT P6SM SCT100
     FM192000 23009KT P6SM VCTS SCT070CB BKN100
     FM200200 VRB05KT P6SM BKN100=



000
FTUS45 KLKN 190500
TAFTPH
TAF
KTPH 190520Z 1906/2006 01006KT P6SM VCSH SCT080 BKN100
     FM191900 24010G20KT P6SM VCSH SCT060 BKN100
     FM200000 31011KT P6SM SCT110=



000
FTUS45 KLKN 190500
TAFEKO
TAF
KEKO 190520Z 1906/2006 VRB06KT P6SM FEW060 SCT100 BKN200
     FM191900 25010G20KT P6SM SCT070 SCT200
     FM200200 VRB06KT P6SM SCT200=



000
FTUS45 KLKN 190500
TAFELY
TAF
KELY 190520Z 1906/2006 17006KT P6SM VCSH BKN080
     FM191900 23011KT P6SM VCTS SCT060CB BKN080
     FM200200 VRB06KT P6SM VCSH SCT060 BKN090=



000
FTUS45 KLKN 190500
TAFWMC
TAF
KWMC 190520Z 1906/2006 VRB06KT P6SM FEW150 BKN200
     FM191900 26010G20KT P6SM SCT200=



000
FTUS45 KLKN 190100 AAA
TAFTPH
TAF AMD
KTPH 190108Z 1901/1924 01016KT P6SM VCSH SCT060 BKN080
     FM190200 18008KT P6SM VCSH BKN080
     FM192000 20008KT P6SM VCSH BKN070=



000
FTUS45 KLKN 190100 AAA
TAFELY
TAF AMD
KELY 190107Z 1901/1924 04013KT P6SM VCSH SCT070 BKN090
     FM190200 18008KT P6SM VCSH BKN080
     FM191900 24009KT P6SM VCTS BKN080CB=



000
FTUS45 KLKN 182300
TAFWMC
TAF
KWMC 182336Z 1900/1924 32008KT P6SM SCT070
     FM190400 VRB05KT P6SM FEW070
     FM191900 25013G23KT P6SM FEW150=



000
FTUS45 KLKN 182300
TAFELY
TAF
KELY 182336Z 1900/1924 36010G20KT P6SM VCSH BKN080
     FM190200 18008KT P6SM VCSH BKN080
     FM191900 24009KT P6SM VCTS BKN080CB=



000
FTUS45 KLKN 182300
TAFEKO
TAF
KEKO 182336Z 1900/1924 25006KT P6SM VCSH SCT070
     FM190200 VRB04KT P6SM SCT060
     FM191900 26013G23KT P6SM VCSH BKN050=



000
FTUS45 KLKN 182300
TAFTPH
TAF
KTPH 182336Z 1900/1924 14010G20KT P6SM VCSH BKN080
     FM190200 18008KT P6SM VCSH BKN080
     FM192000 20008KT P6SM VCSH BKN070=



000
FTUS45 KLKN 181700
TAFTPH
TAF
KTPH 181720Z 1818/1918 10005KT P6SM SCT100 BKN150
     FM181900 19009G15KT P6SM VCTS BKN080CB
     FM190200 18008KT P6SM VCSH BKN080
     FM191700 20008KT P6SM VCSH BKN070=



000
FTUS45 KLKN 181700
TAFWMC
TAF
KWMC 181720Z 1818/1918 33007KT P6SM SCT070
     FM190400 VRB05KT P6SM FEW070
     FM191700 25013G23KT P6SM FEW150=



000
FTUS45 KLKN 181700
TAFELY
TAF
KELY 181720Z 1818/1918 20010KT P6SM SCT060 BKN100
     FM181900 18010KT P6SM VCTS BKN080CB
     FM190200 18008KT P6SM VCSH BKN080
     FM191700 24009KT P6SM VCSH BKN080=



000
FTUS45 KLKN 181700
TAFEKO
TAF
KEKO 181720Z 1818/1918 24007KT P6SM VCSH SCT030 OVC050
     FM190200 VRB04KT P6SM SCT060
     FM191700 26013G23KT P6SM VCSH BKN050=



000
FTUS45 KLKN 181100
TAFEKO
TAF
KEKO 181130Z 1812/1912 24007KT P6SM VCSH BKN060
     FM190200 VRB04KT P6SM SCT060=



000
FTUS45 KLKN 181100
TAFWMC
TAF
KWMC 181130Z 1812/1912 32007KT P6SM VCSH BKN060
     FM181800 32007KT P6SM SCT070
     FM190400 VRB05KT P6SM SKC=



000
FTUS45 KLKN 181100
TAFTPH
TAF
KTPH 181130Z 1812/1912 10005KT P6SM BKN150
     FM181900 19009KT P6SM VCTS BKN080CB
     FM190200 18008KT P6SM VCSH BKN080=



000
FTUS45 KLKN 181100
TAFELY
TAF
KELY 181130Z 1812/1912 20010KT P6SM BKN150
     FM181900 18010KT P6SM VCTS BKN080CB
     FM190200 18008KT P6SM VCSH BKN080=



    US Dept of Commerce
    National Oceanic and Atmospheric Administration
    National Weather Service
    1325 East West Highway
    Silver Spring, MD 20910
    Page Author: NWS Internet Services Team
Disclaimer
Information Quality
Credits
Glossary
Privacy Policy
Freedom of Information Act (FOIA)
About Us
Career Opportunities